Terminal Aerodrome Forecast
Issued by NWS Wakefield, VA

Home | Current Version | Previous Version | Text Only | Print | Product List | Glossary On
Versions: 1 2 3 4 5 6 7 8 9 10 11 12 13 14 15 16
927
FTUS41 KAKQ 230550 RRA
TAFECG
TAF
KECG 230550Z 2306/2406 22010KT P6SM SKC
     FM231500 23008KT P6SM SCT200
     FM231800 22008KT P6SM SCT100
     FM232000 21008KT P6SM VCSH BKN080
     FM232200 26006KT P6SM SHRA BKN080
     FM240200 19005KT P6SM SHRA BKN070=

USA.gov is the U.S. government's official web portal to all federal, state and local government web resources and services.